sensor_id;sensor_type;location;lat;lon;timestamp;pressure;altitude;pressure_sealevel;temperature;humidity
54816;BME280;40715;55.752;37.884;2023-07-29T00:02:04;98037.84;;;32.03;29.85
54816;BME280;40715;55.752;37.884;2023-07-29T00:04:31;98041.81;;;32.00;29.94
54816;BME280;40715;55.752;37.884;2023-07-29T00:06:58;98048.75;;;31.90;30.60
54816;BME280;40715;55.752;37.884;2023-07-29T00:09:25;98041.63;;;31.82;30.25
54816;BME280;40715;55.752;37.884;2023-07-29T00:11:52;98044.31;;;31.75;30.12
54816;BME280;40715;55.752;37.884;2023-07-29T00:14:19;98038.06;;;31.75;29.82
54816;BME280;40715;55.752;37.884;2023-07-29T00:16:46;98033.66;;;31.74;29.99
54816;BME280;40715;55.752;37.884;2023-07-29T00:19:14;98029.47;;;31.78;29.52
54816;BME280;40715;55.752;37.884;2023-07-29T00:21:41;98034.47;;;31.81;29.86
54816;BME280;40715;55.752;37.884;2023-07-29T00:24:08;98027.56;;;31.85;29.94
54816;BME280;40715;55.752;37.884;2023-07-29T00:26:35;98035.53;;;31.87;29.64
54816;BME280;40715;55.752;37.884;2023-07-29T00:29:02;98031.16;;;31.86;29.71
54816;BME280;40715;55.752;37.884;2023-07-29T00:31:29;98035.13;;;31.83;29.56
54816;BME280;40715;55.752;37.884;2023-07-29T00:33:56;98042.88;;;31.79;30.10
54816;BME280;40715;55.752;37.884;2023-07-29T00:36:24;98035.75;;;31.78;30.33
54816;BME280;40715;55.752;37.884;2023-07-29T00:38:51;98043.28;;;31.76;30.04
54816;BME280;40715;55.752;37.884;2023-07-29T00:41:20;98033.84;;;31.72;30.31
54816;BME280;40715;55.752;37.884;2023-07-29T00:43:48;98027.16;;;31.75;29.99
54816;BME280;40715;55.752;37.884;2023-07-29T00:46:15;98033.84;;;31.72;30.19
54816;BME280;40715;55.752;37.884;2023-07-29T00:48:43;98029.28;;;31.73;29.92
54816;BME280;40715;55.752;37.884;2023-07-29T00:51:10;98024.03;;;31.64;30.07
54816;BME280;40715;55.752;37.884;2023-07-29T00:53:37;98022.78;;;31.67;30.02
54816;BME280;40715;55.752;37.884;2023-07-29T00:56:04;98025.50;;;31.67;29.81
54816;BME280;40715;55.752;37.884;2023-07-29T00:58:31;98041.19;;;31.65;30.36
54816;BME280;40715;55.752;37.884;2023-07-29T01:00:59;98033.03;;;31.65;30.04
54816;BME280;40715;55.752;37.884;2023-07-29T01:03:25;98035.13;;;31.63;29.83
54816;BME280;40715;55.752;37.884;2023-07-29T01:08:37;98026.31;;;31.61;29.96
54816;BME280;40715;55.752;37.884;2023-07-29T01:14:04;98020.88;;;31.61;29.80
54816;BME280;40715;55.752;37.884;2023-07-29T01:16:39;98021.94;;;31.60;29.71
54816;BME280;40715;55.752;37.884;2023-07-29T01:19:24;98029.91;;;31.61;30.04
54816;BME280;40715;55.752;37.884;2023-07-29T01:21:55;98037.81;;;31.56;29.88
54816;BME280;40715;55.752;37.884;2023-07-29T01:24:22;98046.59;;;31.52;29.74
54816;BME280;40715;55.752;37.884;2023-07-29T01:26:49;98031.75;;;31.54;30.01
54816;BME280;40715;55.752;37.884;2023-07-29T01:29:16;98023.16;;;31.50;30.03
54816;BME280;40715;55.752;37.884;2023-07-29T01:31:44;98003.88;;;31.45;30.21
54816;BME280;40715;55.752;37.884;2023-07-29T01:34:26;98006.19;;;31.48;29.90
54816;BME280;40715;55.752;37.884;2023-07-29T01:36:57;98004.72;;;31.46;29.84
54816;BME280;40715;55.752;37.884;2023-07-29T01:39:32;97983.38;;;31.43;29.78
54816;BME280;40715;55.752;37.884;2023-07-29T01:41:59;97989.66;;;31.43;29.90
54816;BME280;40715;55.752;37.884;2023-07-29T01:44:27;97984.63;;;31.40;29.72
54816;BME280;40715;55.752;37.884;2023-07-29T01:46:55;97982.94;;;31.39;29.86
54816;BME280;40715;55.752;37.884;2023-07-29T01:49:22;97986.72;;;31.38;30.00
54816;BME280;40715;55.752;37.884;2023-07-29T01:51:49;97996.16;;;31.36;29.68
54816;BME280;40715;55.752;37.884;2023-07-29T01:54:16;97986.91;;;31.37;29.89
54816;BME280;40715;55.752;37.884;2023-07-29T01:56:43;97984.63;;;31.33;29.60
54816;BME280;40715;55.752;37.884;2023-07-29T01:59:10;97979.81;;;31.29;29.62
54816;BME280;40715;55.752;37.884;2023-07-29T02:01:37;97986.28;;;31.28;29.78
54816;BME280;40715;55.752;37.884;2023-07-29T02:04:04;97995.31;;;31.28;29.24
54816;BME280;40715;55.752;37.884;2023-07-29T02:06:31;97993.41;;;31.29;29.19
54816;BME280;40715;55.752;37.884;2023-07-29T02:08:58;97998.03;;;31.28;29.14
54816;BME280;40715;55.752;37.884;2023-07-29T02:11:25;98003.22;;;31.23;29.44
54816;BME280;40715;55.752;37.884;2023-07-29T02:13:55;97990.03;;;31.13;29.87
54816;BME280;40715;55.752;37.884;2023-07-29T02:16:22;97990.44;;;31.04;30.03
54816;BME280;40715;55.752;37.884;2023-07-29T02:18:50;98010.53;;;31.03;29.95
54816;BME280;40715;55.752;37.884;2023-07-29T02:21:20;98012.34;;;30.95;30.29
54816;BME280;40715;55.752;37.884;2023-07-29T02:23:46;98011.28;;;30.90;30.43
54816;BME280;40715;55.752;37.884;2023-07-29T02:26:14;98001.19;;;30.77;30.84
54816;BME280;40715;55.752;37.884;2023-07-29T02:28:40;98007.91;;;30.81;30.40
54816;BME280;40715;55.752;37.884;2023-07-29T02:31:20;98001.63;;;30.80;30.76
54816;BME280;40715;55.752;37.884;2023-07-29T02:33:48;97998.91;;;30.80;30.07
54816;BME280;40715;55.752;37.884;2023-07-29T02:36:16;97999.56;;;30.89;29.67
54816;BME280;40715;55.752;37.884;2023-07-29T02:38:43;97999.00;;;31.01;29.56
54816;BME280;40715;55.752;37.884;2023-07-29T02:41:11;98021.81;;;31.06;29.94
54816;BME280;40715;55.752;37.884;2023-07-29T02:43:43;98015.53;;;31.12;29.95
54816;BME280;40715;55.752;37.884;2023-07-29T02:46:10;98024.16;;;31.16;29.29
54816;BME280;40715;55.752;37.884;2023-07-29T02:48:37;98028.34;;;31.19;29.36
54816;BME280;40715;55.752;37.884;2023-07-29T02:51:04;98036.72;;;31.17;29.07
54816;BME280;40715;55.752;37.884;2023-07-29T02:53:32;98041.09;;;31.18;29.10
54816;BME280;40715;55.752;37.884;2023-07-29T02:55:59;98057.66;;;31.23;28.67
54816;BME280;40715;55.752;37.884;2023-07-29T02:58:26;98054.31;;;31.28;28.39
54816;BME280;40715;55.752;37.884;2023-07-29T03:00:53;98054.53;;;31.33;28.88
54816;BME280;40715;55.752;37.884;2023-07-29T03:03:20;98041.53;;;31.35;28.51
54816;BME280;40715;55.752;37.884;2023-07-29T03:05:47;98031.91;;;31.32;28.89
54816;BME280;40715;55.752;37.884;2023-07-29T03:08:14;98026.06;;;31.29;28.94
54816;BME280;40715;55.752;37.884;2023-07-29T03:10:41;98013.91;;;31.25;29.02
54816;BME280;40715;55.752;37.884;2023-07-29T03:13:08;98007.59;;;31.11;29.61
54816;BME280;40715;55.752;37.884;2023-07-29T03:15:35;98002.09;;;30.97;30.12
54816;BME280;40715;55.752;37.884;2023-07-29T03:18:02;97995.16;;;30.88;30.17
54816;BME280;40715;55.752;37.884;2023-07-29T03:20:29;97995.97;;;30.75;30.56
54816;BME280;40715;55.752;37.884;2023-07-29T03:22:56;97998.47;;;30.70;30.69
54816;BME280;40715;55.752;37.884;2023-07-29T03:25:23;97992.19;;;30.70;30.66
54816;BME280;40715;55.752;37.884;2023-07-29T03:27:50;97990.97;;;30.79;30.15
54816;BME280;40715;55.752;37.884;2023-07-29T03:30:22;97987.00;;;30.81;30.18
54816;BME280;40715;55.752;37.884;2023-07-29T03:32:49;97982.81;;;30.79;30.10
54816;BME280;40715;55.752;37.884;2023-07-29T03:35:16;97977.78;;;30.83;30.02
54816;BME280;40715;55.752;37.884;2023-07-29T03:37:43;97975.94;;;30.83;29.87
54816;BME280;40715;55.752;37.884;2023-07-29T03:40:10;97969.84;;;30.81;30.29
54816;BME280;40715;55.752;37.884;2023-07-29T03:42:37;97956.88;;;30.76;30.13
54816;BME280;40715;55.752;37.884;2023-07-29T03:45:05;97961.25;;;30.71;30.26
54816;BME280;40715;55.752;37.884;2023-07-29T03:47:32;97956.03;;;30.69;30.67
54816;BME280;40715;55.752;37.884;2023-07-29T03:49:59;97952.66;;;30.60;30.54
54816;BME280;40715;55.752;37.884;2023-07-29T03:52:26;97958.47;;;30.51;30.92
54816;BME280;40715;55.752;37.884;2023-07-29T03:54:52;97958.16;;;30.32;31.47
54816;BME280;40715;55.752;37.884;2023-07-29T03:57:20;97954.72;;;30.17;31.74
54816;BME280;40715;55.752;37.884;2023-07-29T03:59:46;97957.22;;;30.11;31.81
54816;BME280;40715;55.752;37.884;2023-07-29T04:02:13;97947.16;;;30.05;31.89
54816;BME280;40715;55.752;37.884;2023-07-29T04:04:41;97950.47;;;30.01;31.97
54816;BME280;40715;55.752;37.884;2023-07-29T04:07:10;97937.91;;;30.00;32.07
54816;BME280;40715;55.752;37.884;2023-07-29T04:09:37;97933.78;;;30.04;31.92
54816;BME280;40715;55.752;37.884;2023-07-29T04:12:05;97930.22;;;30.03;31.97
54816;BME280;40715;55.752;37.884;2023-07-29T04:14:32;97939.59;;;30.01;31.99
54816;BME280;40715;55.752;37.884;2023-07-29T04:16:59;97940.63;;;30.00;32.04
54816;BME280;40715;55.752;37.884;2023-07-29T04:19:26;97943.81;;;30.03;31.62
54816;BME280;40715;55.752;37.884;2023-07-29T04:21:53;97941.28;;;30.02;31.69
54816;BME280;40715;55.752;37.884;2023-07-29T04:24:20;97942.72;;;29.98;32.07
54816;BME280;40715;55.752;37.884;2023-07-29T04:26:49;97941.44;;;29.93;31.91
54816;BME280;40715;55.752;37.884;2023-07-29T04:29:16;97950.56;;;29.86;32.16
54816;BME280;40715;55.752;37.884;2023-07-29T04:31:43;97933.00;;;29.82;32.18
54816;BME280;40715;55.752;37.884;2023-07-29T04:34:10;97930.84;;;29.77;32.43
54816;BME280;40715;55.752;37.884;2023-07-29T04:36:37;97930.44;;;29.73;32.35
54816;BME280;40715;55.752;37.884;2023-07-29T04:39:04;97924.16;;;29.73;32.37
54816;BME280;40715;55.752;37.884;2023-07-29T04:41:32;97918.91;;;29.71;32.64
54816;BME280;40715;55.752;37.884;2023-07-29T04:43:58;97904.97;;;29.74;32.44
54816;BME280;40715;55.752;37.884;2023-07-29T04:46:25;97898.50;;;29.75;32.41
54816;BME280;40715;55.752;37.884;2023-07-29T04:48:52;97897.47;;;29.76;32.45
54816;BME280;40715;55.752;37.884;2023-07-29T04:51:19;97884.31;;;29.73;32.48
54816;BME280;40715;55.752;37.884;2023-07-29T04:53:46;97894.13;;;29.81;32.39
54816;BME280;40715;55.752;37.884;2023-07-29T04:56:13;97886.28;;;29.86;31.95
54816;BME280;40715;55.752;37.884;2023-07-29T04:58:43;97884.44;;;29.93;31.99
54816;BME280;40715;55.752;37.884;2023-07-29T05:01:09;97886.56;;;30.05;31.25
54816;BME280;40715;55.752;37.884;2023-07-29T05:03:37;97886.41;;;30.13;31.01
54816;BME280;40715;55.752;37.884;2023-07-29T05:06:06;97876.81;;;30.24;30.62
54816;BME280;40715;55.752;37.884;2023-07-29T05:08:33;97878.53;;;30.32;30.35
54816;BME280;40715;55.752;37.884;2023-07-29T05:11:00;97862.69;;;30.42;30.40
54816;BME280;40715;55.752;37.884;2023-07-29T05:13:27;97856.88;;;30.52;30.24
54816;BME280;40715;55.752;37.884;2023-07-29T05:15:54;97861.50;;;30.64;30.23
54816;BME280;40715;55.752;37.884;2023-07-29T05:18:22;97863.22;;;30.79;30.62
54816;BME280;40715;55.752;37.884;2023-07-29T05:20:50;97873.25;;;30.92;30.67
54816;BME280;40715;55.752;37.884;2023-07-29T05:23:16;97874.34;;;31.04;30.75
54816;BME280;40715;55.752;37.884;2023-07-29T05:25:43;97882.91;;;31.14;30.52
54816;BME280;40715;55.752;37.884;2023-07-29T05:28:10;97891.28;;;31.26;30.69
54816;BME280;40715;55.752;37.884;2023-07-29T05:30:38;97899.44;;;31.33;30.76
54816;BME280;40715;55.752;37.884;2023-07-29T05:33:06;97897.34;;;31.42;30.65
54816;BME280;40715;55.752;37.884;2023-07-29T05:35:36;97906.34;;;31.49;30.73
54816;BME280;40715;55.752;37.884;2023-07-29T05:38:04;97912.81;;;31.55;31.04
54816;BME280;40715;55.752;37.884;2023-07-29T05:40:32;97922.06;;;31.60;31.08
54816;BME280;40715;55.752;37.884;2023-07-29T05:43:00;97918.47;;;31.66;30.83
54816;BME280;40715;55.752;37.884;2023-07-29T05:45:27;97933.97;;;31.73;30.91
54816;BME280;40715;55.752;37.884;2023-07-29T05:47:54;97929.56;;;31.78;31.25
54816;BME280;40715;55.752;37.884;2023-07-29T05:50:21;97941.72;;;31.82;31.40
54816;BME280;40715;55.752;37.884;2023-07-29T05:52:48;97931.44;;;31.84;31.41
54816;BME280;40715;55.752;37.884;2023-07-29T05:55:15;97927.03;;;31.90;31.12
54816;BME280;40715;55.752;37.884;2023-07-29T05:57:42;97930.16;;;31.94;31.24
54816;BME280;40715;55.752;37.884;2023-07-29T06:00:10;97935.19;;;31.97;31.37
54816;BME280;40715;55.752;37.884;2023-07-29T06:02:37;97936.22;;;32.03;31.60
54816;BME280;40715;55.752;37.884;2023-07-29T06:05:05;97934.94;;;32.05;31.78
54816;BME280;40715;55.752;37.884;2023-07-29T06:07:32;97942.88;;;32.07;31.78
54816;BME280;40715;55.752;37.884;2023-07-29T06:10:00;97942.28;;;32.11;31.42
54816;BME280;40715;55.752;37.884;2023-07-29T06:12:30;97938.47;;;32.12;31.67
54816;BME280;40715;55.752;37.884;2023-07-29T06:14:57;97931.19;;;32.13;31.53
54816;BME280;40715;55.752;37.884;2023-07-29T06:17:24;97945.19;;;32.16;31.97
54816;BME280;40715;55.752;37.884;2023-07-29T06:19:51;97947.09;;;32.16;31.51
54816;BME280;40715;55.752;37.884;2023-07-29T06:22:18;97944.38;;;32.16;31.70
54816;BME280;40715;55.752;37.884;2023-07-29T06:24:45;97955.88;;;32.18;31.61
54816;BME280;40715;55.752;37.884;2023-07-29T06:27:12;97958.22;;;32.21;31.41
54816;BME280;40715;55.752;37.884;2023-07-29T06:29:39;97947.91;;;32.23;31.63
54816;BME280;40715;55.752;37.884;2023-07-29T06:32:06;97956.09;;;32.23;31.75
54816;BME280;40715;55.752;37.884;2023-07-29T06:34:33;97969.28;;;32.26;31.92
54816;BME280;40715;55.752;37.884;2023-07-29T06:37:00;97971.19;;;32.26;31.51
54816;BME280;40715;55.752;37.884;2023-07-29T06:39:27;97973.03;;;32.32;31.59
54816;BME280;40715;55.752;37.884;2023-07-29T06:41:54;97968.63;;;32.31;31.67
54816;BME280;40715;55.752;37.884;2023-07-29T06:44:21;97971.34;;;32.31;31.28
54816;BME280;40715;55.752;37.884;2023-07-29T06:46:48;97975.16;;;32.30;31.17
54816;BME280;40715;55.752;37.884;2023-07-29T06:49:15;97977.44;;;32.26;30.69
54816;BME280;40715;55.752;37.884;2023-07-29T06:51:42;97974.56;;;32.21;30.27
54816;BME280;40715;55.752;37.884;2023-07-29T06:54:09;97971.84;;;32.14;30.65
54816;BME280;40715;55.752;37.884;2023-07-29T06:56:36;97969.53;;;32.05;30.58
54816;BME280;40715;55.752;37.884;2023-07-29T06:59:04;97975.41;;;32.01;30.27
54816;BME280;40715;55.752;37.884;2023-07-29T07:01:31;97965.97;;;31.97;30.54
54816;BME280;40715;55.752;37.884;2023-07-29T07:03:58;97980.03;;;31.94;30.32
54816;BME280;40715;55.752;37.884;2023-07-29T07:06:25;97965.38;;;31.89;30.62
54816;BME280;40715;55.752;37.884;2023-07-29T07:08:52;97970.00;;;31.81;30.30
54816;BME280;40715;55.752;37.884;2023-07-29T07:11:19;97967.91;;;31.77;30.40
54816;BME280;40715;55.752;37.884;2023-07-29T07:13:46;97964.16;;;31.71;30.64
54816;BME280;40715;55.752;37.884;2023-07-29T07:16:13;97961.81;;;31.68;30.79
54816;BME280;40715;55.752;37.884;2023-07-29T07:18:40;97974.00;;;31.65;30.81
54816;BME280;40715;55.752;37.884;2023-07-29T07:21:07;97975.47;;;31.61;30.81
54816;BME280;40715;55.752;37.884;2023-07-29T07:23:34;97962.69;;;31.62;30.69
54816;BME280;40715;55.752;37.884;2023-07-29T07:26:01;97970.84;;;31.62;30.48
54816;BME280;40715;55.752;37.884;2023-07-29T07:28:28;97973.16;;;31.58;30.45
54816;BME280;40715;55.752;37.884;2023-07-29T07:30:55;97960.56;;;31.50;30.41
54816;BME280;40715;55.752;37.884;2023-07-29T07:33:23;97987.13;;;31.42;30.56
54816;BME280;40715;55.752;37.884;2023-07-29T07:35:49;97981.91;;;31.33;30.75
54816;BME280;40715;55.752;37.884;2023-07-29T07:38:16;97973.72;;;31.27;30.59
54816;BME280;40715;55.752;37.884;2023-07-29T07:40:52;97975.63;;;31.26;31.16
54816;BME280;40715;55.752;37.884;2023-07-29T07:43:20;97976.84;;;31.24;31.22
54816;BME280;40715;55.752;37.884;2023-07-29T07:45:47;97984.19;;;31.23;30.83
54816;BME280;40715;55.752;37.884;2023-07-29T07:48:14;97981.25;;;31.18;31.21
54816;BME280;40715;55.752;37.884;2023-07-29T07:50:43;97975.41;;;31.14;31.19
54816;BME280;40715;55.752;37.884;2023-07-29T07:53:10;97970.59;;;31.10;31.41
54816;BME280;40715;55.752;37.884;2023-07-29T07:55:37;97972.25;;;31.04;31.31
54816;BME280;40715;55.752;37.884;2023-07-29T07:58:04;97976.63;;;31.05;31.09
54816;BME280;40715;55.752;37.884;2023-07-29T08:00:31;97984.78;;;31.05;31.23
54816;BME280;40715;55.752;37.884;2023-07-29T08:02:58;97985.63;;;31.06;31.59
54816;BME280;40715;55.752;37.884;2023-07-29T08:05:25;97986.25;;;31.08;31.93
54816;BME280;40715;55.752;37.884;2023-07-29T08:07:52;97988.13;;;31.14;31.91
54816;BME280;40715;55.752;37.884;2023-07-29T08:10:19;97982.75;;;31.27;31.92
54816;BME280;40715;55.752;37.884;2023-07-29T08:12:46;97982.34;;;31.37;32.26
54816;BME280;40715;55.752;37.884;2023-07-29T08:15:13;97976.28;;;31.48;32.24
54816;BME280;40715;55.752;37.884;2023-07-29T08:17:40;97980.47;;;31.58;32.32
54816;BME280;40715;55.752;37.884;2023-07-29T08:20:07;97976.94;;;31.64;31.96
54816;BME280;40715;55.752;37.884;2023-07-29T08:22:34;97992.81;;;31.74;31.98
54816;BME280;40715;55.752;37.884;2023-07-29T08:25:01;97995.75;;;31.86;32.09
54816;BME280;40715;55.752;37.884;2023-07-29T08:27:29;97991.53;;;31.96;32.09
54816;BME280;40715;55.752;37.884;2023-07-29T08:29:56;97996.53;;;32.06;32.07
54816;BME280;40715;55.752;37.884;2023-07-29T08:32:23;97998.03;;;32.15;31.59
54816;BME280;40715;55.752;37.884;2023-07-29T08:34:50;97995.91;;;32.24;31.51
54816;BME280;40715;55.752;37.884;2023-07-29T08:37:17;98000.94;;;32.27;32.10
54816;BME280;40715;55.752;37.884;2023-07-29T08:39:44;98000.69;;;32.35;31.63
54816;BME280;40715;55.752;37.884;2023-07-29T08:42:11;97999.00;;;32.41;31.81
54816;BME280;40715;55.752;37.884;2023-07-29T08:44:42;97998.78;;;32.43;31.55
54816;BME280;40715;55.752;37.884;2023-07-29T08:47:10;98011.53;;;32.56;31.79
54816;BME280;40715;55.752;37.884;2023-07-29T08:49:38;98004.38;;;32.61;31.82
54816;BME280;40715;55.752;37.884;2023-07-29T08:52:06;98012.34;;;32.63;31.59
54816;BME280;40715;55.752;37.884;2023-07-29T08:54:33;98003.31;;;32.69;31.65
54816;BME280;40715;55.752;37.884;2023-07-29T08:57:01;98003.53;;;32.74;31.56
54816;BME280;40715;55.752;37.884;2023-07-29T08:59:28;98007.88;;;32.82;31.25
54816;BME280;40715;55.752;37.884;2023-07-29T09:01:56;98015.59;;;32.92;31.56
54816;BME280;40715;55.752;37.884;2023-07-29T09:04:24;98009.31;;;32.91;31.52
54816;BME280;40715;55.752;37.884;2023-07-29T09:06:52;98006.59;;;32.91;31.27
54816;BME280;40715;55.752;37.884;2023-07-29T09:09:20;98009.91;;;32.93;31.50
54816;BME280;40715;55.752;37.884;2023-07-29T09:11:48;98013.28;;;32.95;31.06
54816;BME280;40715;55.752;37.884;2023-07-29T09:14:15;98008.22;;;32.92;31.49
54816;BME280;40715;55.752;37.884;2023-07-29T09:16:42;98018.53;;;32.90;31.19
54816;BME280;40715;55.752;37.884;2023-07-29T09:19:10;98010.34;;;32.90;31.47
54816;BME280;40715;55.752;37.884;2023-07-29T09:21:40;98009.94;;;32.86;31.35
54816;BME280;40715;55.752;37.884;2023-07-29T09:24:08;98017.72;;;32.90;31.62
54816;BME280;40715;55.752;37.884;2023-07-29T09:26:35;98024.22;;;32.89;31.58
54816;BME280;40715;55.752;37.884;2023-07-29T09:29:03;98016.63;;;32.91;31.95
54816;BME280;40715;55.752;37.884;2023-07-29T09:31:31;98014.75;;;32.91;31.61
54816;BME280;40715;55.752;37.884;2023-07-29T09:34:00;98012.47;;;32.88;32.16
54816;BME280;40715;55.752;37.884;2023-07-29T09:36:30;98013.97;;;32.84;32.21
54816;BME280;40715;55.752;37.884;2023-07-29T09:38:58;98014.59;;;32.79;31.96
54816;BME280;40715;55.752;37.884;2023-07-29T09:41:27;98008.97;;;32.74;32.48
54816;BME280;40715;55.752;37.884;2023-07-29T09:43:59;98010.84;;;32.74;32.27
54816;BME280;40715;55.752;37.884;2023-07-29T09:46:36;98011.47;;;32.76;32.62
54816;BME280;40715;55.752;37.884;2023-07-29T09:49:05;98012.09;;;32.78;32.47
54816;BME280;40715;55.752;37.884;2023-07-29T09:51:37;98018.19;;;32.73;32.81
54816;BME280;40715;55.752;37.884;2023-07-29T09:54:06;98028.28;;;32.73;32.85
54816;BME280;40715;55.752;37.884;2023-07-29T09:56:33;98028.91;;;32.68;33.02
54816;BME280;40715;55.752;37.884;2023-07-29T09:59:05;98030.59;;;32.69;32.69
54816;BME280;40715;55.752;37.884;2023-07-29T10:01:33;98027.44;;;32.65;32.97
54816;BME280;40715;55.752;37.884;2023-07-29T10:04:03;98032.28;;;32.70;32.61
54816;BME280;40715;55.752;37.884;2023-07-29T10:06:30;98030.38;;;32.71;32.93
54816;BME280;40715;55.752;37.884;2023-07-29T10:08:59;98028.50;;;32.71;32.50
54816;BME280;40715;55.752;37.884;2023-07-29T10:11:27;98023.03;;;32.71;32.58
54816;BME280;40715;55.752;37.884;2023-07-29T10:13:54;98023.88;;;32.72;32.85
54816;BME280;40715;55.752;37.884;2023-07-29T10:16:34;98019.47;;;32.71;32.42
54816;BME280;40715;55.752;37.884;2023-07-29T10:19:04;98015.09;;;32.69;32.62
54816;BME280;40715;55.752;37.884;2023-07-29T10:21:31;98013.19;;;32.70;32.83
54816;BME280;40715;55.752;37.884;2023-07-29T10:24:01;98022.81;;;32.66;32.82
54816;BME280;40715;55.752;37.884;2023-07-29T10:26:31;98019.47;;;32.64;32.98
54816;BME280;40715;55.752;37.884;2023-07-29T10:29:04;98024.72;;;32.65;33.04
54816;BME280;40715;55.752;37.884;2023-07-29T10:31:34;98023.25;;;32.69;32.89
54816;BME280;40715;55.752;37.884;2023-07-29T10:34:02;98025.78;;;32.71;32.85
54816;BME280;40715;55.752;37.884;2023-07-29T10:36:30;98032.66;;;32.74;32.98
54816;BME280;40715;55.752;37.884;2023-07-29T10:38:57;98034.34;;;32.75;32.80
54816;BME280;40715;55.752;37.884;2023-07-29T10:42:03;98029.25;;;32.85;32.70
54816;BME280;40715;55.752;37.884;2023-07-29T10:49:47;98022.38;;;32.76;33.21
54816;BME280;40715;55.752;37.884;2023-07-29T10:52:16;98035.81;;;32.77;32.98
54816;BME280;40715;55.752;37.884;2023-07-29T10:54:47;98032.63;;;32.80;32.96
54816;BME280;40715;55.752;37.884;2023-07-29T10:57:16;98036.00;;;32.82;33.18
54816;BME280;40715;55.752;37.884;2023-07-29T10:59:57;98037.22;;;32.86;33.00
54816;BME280;40715;55.752;37.884;2023-07-29T11:02:58;98039.06;;;32.99;33.05
54816;BME280;40715;55.752;37.884;2023-07-29T11:05:45;98036.97;;;32.95;33.25
54816;BME280;40715;55.752;37.884;2023-07-29T11:08:39;98039.91;;;33.00;33.10
54816;BME280;40715;55.752;37.884;2023-07-29T11:11:08;98034.47;;;32.86;32.87
54816;BME280;40715;55.752;37.884;2023-07-29T11:13:36;98031.16;;;32.84;33.14
54816;BME280;40715;55.752;37.884;2023-07-29T11:16:05;98025.91;;;32.83;33.24
54816;BME280;40715;55.752;37.884;2023-07-29T11:18:34;98023.78;;;32.85;33.41
54816;BME280;40715;55.752;37.884;2023-07-29T11:21:03;98026.31;;;32.86;33.55
54816;BME280;40715;55.752;37.884;2023-07-29T11:23:35;98028.63;;;32.90;33.17
54816;BME280;40715;55.752;37.884;2023-07-29T11:26:03;98035.13;;;32.89;33.21
54816;BME280;40715;55.752;37.884;2023-07-29T11:28:31;98027.13;;;32.94;33.32
54816;BME280;40715;55.752;37.884;2023-07-29T11:31:04;98034.25;;;32.95;33.51
54816;BME280;40715;55.752;37.884;2023-07-29T11:33:31;98040.78;;;32.94;33.58
54816;BME280;40715;55.752;37.884;2023-07-29T11:35:59;98043.50;;;32.94;33.36
54816;BME280;40715;55.752;37.884;2023-07-29T11:38:26;98046.00;;;32.95;33.60
54816;BME280;40715;55.752;37.884;2023-07-29T11:40:57;98038.22;;;32.92;33.27
54816;BME280;40715;55.752;37.884;2023-07-29T11:43:25;98052.50;;;32.94;33.43
54816;BME280;40715;55.752;37.884;2023-07-29T11:45:53;98059.66;;;32.95;33.48
54816;BME280;40715;55.752;37.884;2023-07-29T11:48:31;98054.56;;;32.99;33.50
54816;BME280;40715;55.752;37.884;2023-07-29T11:50:58;98056.47;;;32.98;33.36
54816;BME280;40715;55.752;37.884;2023-07-29T11:53:28;98067.84;;;32.95;33.26
54816;BME280;40715;55.752;37.884;2023-07-29T11:55:57;98073.06;;;32.97;33.54
54816;BME280;40715;55.752;37.884;2023-07-29T11:58:24;98069.25;;;32.98;33.24
54816;BME280;40715;55.752;37.884;2023-07-29T12:00:52;98069.06;;;32.99;33.42
54816;BME280;40715;55.752;37.884;2023-07-29T12:03:19;98067.63;;;32.97;33.37
54816;BME280;40715;55.752;37.884;2023-07-29T12:05:47;98069.91;;;33.00;33.63
54816;BME280;40715;55.752;37.884;2023-07-29T12:08:14;98074.53;;;32.99;33.53
54816;BME280;40715;55.752;37.884;2023-07-29T12:10:42;98064.44;;;33.00;33.73
54816;BME280;40715;55.752;37.884;2023-07-29T12:13:09;98078.47;;;33.03;33.39
54816;BME280;40715;55.752;37.884;2023-07-29T12:15:38;98067.16;;;33.00;33.58
54816;BME280;40715;55.752;37.884;2023-07-29T12:18:05;98069.47;;;33.03;33.45
54816;BME280;40715;55.752;37.884;2023-07-29T12:20:32;98062.09;;;33.03;33.78
54816;BME280;40715;55.752;37.884;2023-07-29T12:23:00;98064.84;;;33.03;33.32
54816;BME280;40715;55.752;37.884;2023-07-29T12:25:29;98072.81;;;33.05;33.70
54816;BME280;40715;55.752;37.884;2023-07-29T12:28:02;98071.97;;;33.04;33.25
54816;BME280;40715;55.752;37.884;2023-07-29T12:30:29;98066.94;;;33.08;33.52
54816;BME280;40715;55.752;37.884;2023-07-29T12:32:57;98068.81;;;33.08;33.34
54816;BME280;40715;55.752;37.884;2023-07-29T12:35:24;98071.75;;;33.06;33.36
54816;BME280;40715;55.752;37.884;2023-07-29T12:37:58;98076.16;;;33.07;33.57
54816;BME280;40715;55.752;37.884;2023-07-29T12:40:26;98074.25;;;33.08;33.55
54816;BME280;40715;55.752;37.884;2023-07-29T12:42:54;98073.22;;;33.09;33.63
54816;BME280;40715;55.752;37.884;2023-07-29T12:45:21;98069.44;;;33.10;33.18
54816;BME280;40715;55.752;37.884;2023-07-29T12:47:53;98065.03;;;33.09;33.14
54816;BME280;40715;55.752;37.884;2023-07-29T12:50:20;98067.75;;;33.09;33.31
54816;BME280;40715;55.752;37.884;2023-07-29T12:52:48;98065.25;;;33.07;33.38
54816;BME280;40715;55.752;37.884;2023-07-29T12:55:15;98071.53;;;33.08;33.19
54816;BME280;40715;55.752;37.884;2023-07-29T12:57:44;98067.75;;;33.09;33.56
54816;BME280;40715;55.752;37.884;2023-07-29T13:00:11;98069.66;;;33.08;33.50
54816;BME280;40715;55.752;37.884;2023-07-29T13:02:39;98073.00;;;33.10;33.60
54816;BME280;40715;55.752;37.884;2023-07-29T13:05:10;98062.53;;;33.07;33.52
54816;BME280;40715;55.752;37.884;2023-07-29T13:07:42;98067.75;;;33.09;33.27